Time;durP1;ratioP1;P1;durP2;ratioP2;P2;SDS_P1;SDS_P2;PMS_P1;PMS_P2;Temp;Humidity;BMP_temperature;BMP_pressure;BME280_temperature;BME280_humidity;BME280_pressure;Samples;Min_cycle;Max_cycle;Signal;HPM_P1;HPM_P2
2021/12/21 00:00:14;;;;;;;0.00;0.00;;;;;;;9.09;66.59;102012.94;7362676;19;20010;-59
2021/12/21 00:02:41;;;;;;;0.00;0.00;;;;;;;9.09;66.55;102018.16;7358285;19;20022;-59
2021/12/21 00:05:08;;;;;;;0.00;0.00;;;;;;;9.08;66.57;102006.00;7354951;19;20775;-59
2021/12/21 00:07:34;;;;;;;0.00;0.00;;;;;;;9.07;65.77;102008.56;7358780;19;20049;-57
2021/12/21 00:10:00;;;;;;;0.10;0.10;;;;;;;9.04;65.73;102008.56;7360006;19;20014;-59
2021/12/21 00:12:28;;;;;;;0.00;0.00;;;;;;;9.03;66.12;102012.03;7360928;19;21344;-59
2021/12/21 00:15:02;;;;;;;0.00;0.00;;;;;;;9.01;65.79;102008.53;7360396;19;20018;-59
2021/12/21 00:17:48;;;;;;;0.00;0.00;;;;;;;9.00;66.13;102002.47;7358071;19;20011;-59
2021/12/21 00:20:47;;;;;;;0.10;0.10;;;;;;;8.90;66.01;101978.97;7360636;19;20040;-59
2021/12/21 00:25:34;;;;;;;0.00;0.00;;;;;;;8.92;66.30;101978.13;7361936;19;20006;-59
2021/12/21 00:28:01;;;;;;;0.00;0.00;;;;;;;8.97;66.26;101981.63;7355989;19;20017;-59
2021/12/21 00:30:26;;;;;;;0.00;0.00;;;;;;;8.96;65.99;101979.88;7360475;19;20013;-59
2021/12/21 00:32:52;;;;;;;0.00;0.00;;;;;;;8.95;65.53;101972.91;7354591;19;20601;-59
2021/12/21 00:35:17;;;;;;;0.00;0.00;;;;;;;8.94;65.77;101976.38;7353535;19;20018;-59
2021/12/21 00:37:43;;;;;;;0.10;0.10;;;;;;;8.76;65.88;101945.03;7358998;19;20138;-59
2021/12/21 00:40:10;;;;;;;0.00;0.00;;;;;;;8.94;65.82;101981.59;7352190;19;20006;-60
2021/12/21 00:42:35;;;;;;;0.00;0.00;;;;;;;8.86;66.30;101967.66;7355930;19;20909;-59
2021/12/21 00:45:01;;;;;;;0.00;0.00;;;;;;;8.94;66.31;101976.38;7360201;19;20100;-59
2021/12/21 00:47:26;;;;;;;0.00;0.00;;;;;;;8.95;66.26;101978.13;7365173;19;20018;-59
2021/12/21 00:49:59;;;;;;;0.10;0.10;;;;;;;8.98;66.30;101977.28;7361432;19;20016;-58
2021/12/21 00:52:25;;;;;;;0.00;0.00;;;;;;;8.98;66.50;101977.28;7363759;19;20010;-60
2021/12/21 00:54:51;;;;;;;0.10;0.10;;;;;;;8.98;66.38;101978.16;7363627;19;20003;-59
2021/12/21 00:57:17;;;;;;;0.00;0.00;;;;;;;8.99;66.42;101974.69;7359362;19;20010;-59
2021/12/21 00:59:43;;;;;;;0.00;0.00;;;;;;;8.99;66.11;101974.69;7364302;19;20142;-60
2021/12/21 01:02:09;;;;;;;0.00;0.00;;;;;;;8.95;65.85;101956.41;7359889;19;20010;-58
2021/12/21 01:04:43;;;;;;;0.10;0.10;;;;;;;8.97;66.04;101960.78;7357458;19;20015;-58
2021/12/21 01:12:47;;;;;;;0.10;0.10;;;;;;;8.91;65.77;101934.69;7363941;19;20039;-59
2021/12/21 01:15:40;;;;;;;0.00;0.00;;;;;;;8.93;65.83;101940.78;7364271;19;20010;-58
2021/12/21 01:18:15;;;;;;;0.00;0.00;;;;;;;8.93;65.68;101940.78;7261340;19;2004487;-59
2021/12/21 01:20:50;;;;;;;0.10;0.10;;;;;;;8.91;65.86;101934.69;7364331;19;20783;-59
2021/12/21 01:28:41;;;;;;;0.00;0.00;;;;;;;8.88;66.28;101929.47;7360660;19;20011;-59
2021/12/21 01:34:09;;;;;;;0.00;0.00;;;;;;;8.92;66.25;101931.25;7360512;19;20467;-59
2021/12/21 01:36:38;;;;;;;0.00;0.00;;;;;;;8.92;66.57;101928.63;7362114;19;20017;-58
2021/12/21 01:42:05;;;;;;;0.00;0.00;;;;;;;8.92;65.87;101933.84;7361770;19;20013;-59
2021/12/21 01:49:50;;;;;;;0.00;0.00;;;;;;;8.86;65.86;101936.41;7365962;19;21247;-59
2021/12/21 01:52:22;;;;;;;0.00;0.00;;;;;;;8.86;65.84;101936.41;7359133;19;20039;-59
2021/12/21 01:54:48;;;;;;;0.00;0.00;;;;;;;8.87;66.26;101937.25;7361997;19;20460;-58
2021/12/21 01:57:14;;;;;;;0.03;0.03;;;;;;;8.84;65.85;101939.00;7362371;19;20018;-58
2021/12/21 01:59:41;;;;;;;0.00;0.00;;;;;;;8.84;66.01;101932.94;7363458;19;20014;-58
2021/12/21 02:02:08;;;;;;;0.10;0.10;;;;;;;8.84;66.29;101927.72;7366382;19;20010;-59
2021/12/21 02:04:39;;;;;;;0.00;0.00;;;;;;;8.85;66.07;101919.03;7362136;19;20015;-59
2021/12/21 02:07:05;;;;;;;0.10;0.10;;;;;;;8.85;65.76;101919.03;7364803;19;20100;-59
2021/12/21 02:09:37;;;;;;;0.00;0.00;;;;;;;8.86;65.89;101925.97;7365382;19;20014;-60
2021/12/21 02:12:11;;;;;;;0.00;0.00;;;;;;;8.88;66.14;101929.47;7364344;19;20104;-58
2021/12/21 02:14:39;;;;;;;0.00;0.00;;;;;;;8.88;66.18;101929.47;7361578;19;20010;-59
2021/12/21 02:22:49;;;;;;;0.00;0.00;;;;;;;8.87;65.70;101922.53;7263037;19;2004566;-59
2021/12/21 02:27:58;;;;;;;;;;;;;;;8.93;66.64;101906.06;7364857;19;20014;-59
2021/12/21 02:30:24;;;;;;;0.00;0.00;;;;;;;8.88;66.13;101906.03;7359247;19;20526;-59
2021/12/21 02:32:52;;;;;;;0.00;0.00;;;;;;;8.88;66.05;101906.03;7366004;19;20002;-59
2021/12/21 02:35:18;;;;;;;0.00;0.00;;;;;;;8.86;66.00;101907.75;7364823;19;20010;-56
2021/12/21 02:37:44;;;;;;;0.00;0.00;;;;;;;8.84;66.22;101896.47;7366959;19;20010;-59
2021/12/21 02:40:10;;;;;;;0.00;0.00;;;;;;;8.84;66.37;101909.50;7367605;19;20030;-59
2021/12/21 02:42:36;;;;;;;0.00;0.00;;;;;;;8.83;66.39;101910.34;7365900;19;20762;-58
2021/12/21 02:45:02;;;;;;;0.10;0.10;;;;;;;8.83;66.22;101910.34;7365229;19;20106;-59
2021/12/21 02:47:27;;;;;;;0.00;0.00;;;;;;;8.84;66.08;101899.06;7365936;19;20010;-59
2021/12/21 02:49:52;;;;;;;0.00;0.00;;;;;;;8.78;66.27;101896.44;7365529;19;20885;-59
2021/12/21 02:52:18;;;;;;;0.00;0.00;;;;;;;8.83;66.33;101907.75;7364297;19;20014;-59
2021/12/21 02:54:43;;;;;;;0.00;0.00;;;;;;;8.86;66.34;101907.75;7364970;19;20032;-59
2021/12/21 02:57:09;;;;;;;0.00;0.00;;;;;;;8.84;66.10;101902.53;7365673;19;20070;-59
2021/12/21 02:59:34;;;;;;;0.00;0.00;;;;;;;8.85;66.27;101898.19;7354318;19;20014;-59
2021/12/21 03:02:00;;;;;;;0.05;0.05;;;;;;;8.83;66.01;101895.59;7364276;19;20022;-59
2021/12/21 03:04:26;;;;;;;0.00;0.00;;;;;;;8.84;65.73;101891.25;7365013;19;20066;-59
2021/12/21 03:09:41;;;;;;;0.00;0.00;;;;;;;8.84;66.05;101897.34;7364437;19;20038;-59
2021/12/21 03:12:28;;;;;;;0.00;0.00;;;;;;;8.84;65.81;101905.16;7363120;19;20094;-59
2021/12/21 03:14:54;;;;;;;0.10;0.10;;;;;;;8.83;66.08;101899.94;7358792;19;20028;-59
2021/12/21 03:17:20;;;;;;;0.00;0.00;;;;;;;8.83;66.23;101895.59;7364736;19;20011;-59
2021/12/21 03:19:46;;;;;;;0.10;0.10;;;;;;;8.84;66.11;101893.88;7362538;19;20014;-59
2021/12/21 03:22:12;;;;;;;0.03;0.03;;;;;;;8.84;66.15;101901.69;7363755;19;20749;-59
2021/12/21 03:24:38;;;;;;;0.03;0.03;;;;;;;8.84;66.14;101897.34;7362850;19;20022;-59
2021/12/21 03:27:04;;;;;;;0.00;0.00;;;;;;;8.85;66.26;101887.78;7357717;19;20018;-58
2021/12/21 03:29:31;;;;;;;0.00;0.00;;;;;;;8.84;66.21;101893.88;7362444;19;20029;-59
2021/12/21 03:31:57;;;;;;;0.00;0.00;;;;;;;8.83;66.20;101890.41;7362210;19;20090;-59
2021/12/21 03:34:23;;;;;;;0.00;0.00;;;;;;;8.84;66.32;101891.25;7363840;19;20002;-59
2021/12/21 03:36:48;;;;;;;0.10;0.10;;;;;;;8.82;66.30;101882.59;7365612;19;20053;-59
2021/12/21 03:39:19;;;;;;;0.05;0.05;;;;;;;8.86;66.22;101884.31;7359077;19;20010;-58
2021/12/21 03:41:49;;;;;;;0.00;0.00;;;;;;;8.87;65.80;101880.88;7353139;19;20007;-59
2021/12/21 03:44:17;;;;;;;0.00;0.00;;;;;;;8.71;66.33;101859.06;7363321;19;20010;-58
2021/12/21 03:46:52;;;;;;;0.00;0.00;;;;;;;8.83;66.22;101877.38;7362802;19;20010;-57
2021/12/21 03:52:05;;;;;;;0.00;0.00;;;;;;;8.80;66.16;101869.53;7360086;19;20014;-59
2021/12/21 03:54:31;;;;;;;0.00;0.00;;;;;;;8.78;66.29;101870.41;7361150;19;20013;-58
2021/12/21 03:56:57;;;;;;;0.00;0.00;;;;;;;8.82;66.31;101873.03;7364924;19;20041;-59
2021/12/21 03:59:23;;;;;;;0.00;0.00;;;;;;;8.82;66.31;101862.63;7359577;19;20529;-58
2021/12/21 04:01:50;;;;;;;0.03;0.03;;;;;;;8.83;66.23;101863.47;7355977;19;20021;-59
2021/12/21 04:04:19;;;;;;;0.05;0.05;;;;;;;8.83;65.82;101868.69;7362152;19;20021;-59
2021/12/21 04:06:46;;;;;;;0.00;0.00;;;;;;;8.82;66.00;101873.03;7352313;19;20086;-59
2021/12/21 04:09:12;;;;;;;0.00;0.00;;;;;;;8.82;65.87;101866.94;7360768;19;20018;-59
2021/12/21 04:11:38;;;;;;;0.00;0.00;;;;;;;8.76;65.76;101856.50;7346105;19;20040;-59
2021/12/21 04:14:04;;;;;;;0.00;0.00;;;;;;;8.82;65.72;101869.56;7358195;19;20474;-58
2021/12/21 04:16:29;;;;;;;0.10;0.10;;;;;;;8.80;65.75;101868.66;7359701;19;20010;-59
2021/12/21 04:18:55;;;;;;;0.00;0.00;;;;;;;8.79;65.94;101856.50;7357233;19;20058;-59
2021/12/21 04:21:21;;;;;;;0.00;0.00;;;;;;;8.79;65.92;101861.72;7360819;19;20006;-59
2021/12/21 04:23:46;;;;;;;0.00;0.00;;;;;;;8.79;65.71;101853.91;7363281;19;20090;-59
2021/12/21 04:26:14;;;;;;;0.00;0.00;;;;;;;8.80;65.68;101848.69;7361946;19;20006;-59
2021/12/21 04:28:40;;;;;;;0.00;0.00;;;;;;;8.79;65.75;101840.88;7365090;19;20139;-59
2021/12/21 04:31:06;;;;;;;0.10;0.10;;;;;;;8.79;65.71;101833.06;7366445;19;20094;-60
2021/12/21 04:33:33;;;;;;;0.00;0.00;;;;;;;8.78;65.62;101828.72;7365816;19;20715;-58
2021/12/21 04:35:58;;;;;;;0.10;0.10;;;;;;;8.78;66.02;101823.53;7363767;19;20014;-58
2021/12/21 04:38:30;;;;;;;0.10;0.10;;;;;;;8.74;65.92;101816.56;7366567;19;20395;-59
2021/12/21 04:41:07;;;;;;;0.10;0.10;;;;;;;8.76;65.79;101825.25;7364472;19;20010;-59
2021/12/21 04:43:33;;;;;;;0.00;0.00;;;;;;;8.70;65.54;101814.81;7365097;19;20015;-59
2021/12/21 04:45:58;;;;;;;0.00;0.00;;;;;;;8.71;66.11;101821.75;7365691;19;20025;-59
2021/12/21 04:48:24;;;;;;;0.00;0.00;;;;;;;8.75;65.58;101824.38;7364095;19;20014;-59
2021/12/21 04:50:49;;;;;;;0.00;0.00;;;;;;;8.75;65.66;101820.91;7364872;19;20011;-59
2021/12/21 04:53:15;;;;;;;0.00;0.00;;;;;;;8.75;65.97;101820.91;7364153;19;20022;-59
2021/12/21 04:55:41;;;;;;;0.00;0.00;;;;;;;8.74;65.70;101814.81;7365004;19;20564;-59
2021/12/21 04:58:06;;;;;;;0.00;0.00;;;;;;;8.73;65.68;101820.03;7364075;19;20007;-58
2021/12/21 05:00:32;;;;;;;0.00;0.00;;;;;;;8.73;65.83;101814.84;7363394;19;20090;-59
2021/12/21 05:02:58;;;;;;;0.00;0.00;;;;;;;8.73;65.75;101820.03;7364866;19;20023;-59
2021/12/21 05:05:23;;;;;;;0.00;0.00;;;;;;;8.72;65.66;101818.31;7361107;19;20010;-59
2021/12/21 05:07:54;;;;;;;0.10;0.10;;;;;;;8.70;65.52;101807.88;7364230;19;20010;-59
2021/12/21 05:10:20;;;;;;;0.00;0.00;;;;;;;8.70;65.72;101802.66;7365547;19;20013;-59
2021/12/21 05:12:46;;;;;;;0.00;0.00;;;;;;;8.70;65.78;101804.41;7363320;19;20002;-59
2021/12/21 05:15:12;;;;;;;0.00;0.00;;;;;;;8.70;65.78;101793.97;7364148;19;20046;-61
2021/12/21 05:17:37;;;;;;;0.00;0.00;;;;;;;8.70;66.13;101793.97;7363685;19;20010;-59
2021/12/21 05:20:04;;;;;;;0.00;0.00;;;;;;;8.73;66.12;101799.22;7363819;19;20490;-59
2021/12/21 05:22:29;;;;;;;0.00;0.00;;;;;;;8.63;66.21;101776.63;7363864;19;20593;-57
2021/12/21 05:24:55;;;;;;;0.10;0.10;;;;;;;8.72;65.90;101787.06;7371191;19;20023;-59
2021/12/21 05:27:21;;;;;;;0.00;0.00;;;;;;;8.74;66.01;101787.91;7361683;19;20026;-59
2021/12/21 05:29:46;;;;;;;0.03;0.03;;;;;;;8.73;65.93;101788.78;7371549;19;20078;-59
2021/12/21 05:32:12;;;;;;;0.00;0.00;;;;;;;8.74;66.25;101782.72;7370070;19;21441;-59
2021/12/21 05:34:38;;;;;;;0.00;0.00;;;;;;;8.75;66.20;101789.66;7369910;19;20343;-59
2021/12/21 05:37:06;;;;;;;0.00;0.00;;;;;;;8.76;66.01;101788.78;7370737;19;20769;-59
2021/12/21 05:39:42;;;;;;;0.00;0.00;;;;;;;8.76;66.17;101791.38;7370476;19;20022;-59
2021/12/21 05:42:08;;;;;;;0.00;0.00;;;;;;;8.75;65.82;101779.22;7369024;19;20039;-58
2021/12/21 05:44:33;;;;;;;0.00;0.00;;;;;;;8.77;66.34;101770.56;7370894;19;22751;-59
2021/12/21 05:46:59;;;;;;;0.00;0.00;;;;;;;8.78;65.93;101777.50;7368640;19;20038;-59
2021/12/21 05:49:24;;;;;;;0.00;0.00;;;;;;;8.53;65.83;101731.47;7370446;19;20007;-59
2021/12/21 05:51:50;;;;;;;0.00;0.00;;;;;;;8.78;66.26;101761.88;7368180;19;20690;-59
2021/12/21 05:54:18;;;;;;;0.00;0.00;;;;;;;8.78;65.95;101768.84;7367933;19;20013;-59
2021/12/21 05:56:44;;;;;;;0.00;0.00;;;;;;;8.73;66.03;101763.63;7369616;19;20006;-59
2021/12/21 05:59:09;;;;;;;0.00;0.00;;;;;;;8.72;66.11;101750.59;7369287;19;22319;-59
2021/12/21 06:01:35;;;;;;;0.00;0.00;;;;;;;8.78;66.36;101767.09;7368586;19;20041;-59
2021/12/21 06:04:02;;;;;;;0.00;0.00;;;;;;;8.79;65.83;101760.16;7370477;19;20011;-59
2021/12/21 06:06:30;;;;;;;0.00;0.00;;;;;;;8.66;65.54;101745.34;7367653;19;20038;-59
2021/12/21 06:08:57;;;;;;;0.00;0.00;;;;;;;8.78;65.52;101776.66;7368297;19;20010;-58
2021/12/21 06:11:23;;;;;;;0.00;0.00;;;;;;;8.76;65.71;101766.22;7366347;19;20014;-59
2021/12/21 06:22:44;;;;;;;0.00;0.00;;;;;;;8.66;65.84;101750.56;7366237;19;20014;-59
2021/12/21 06:27:27;;;;;;;0.00;0.00;;;;;;;8.68;65.83;101765.34;7363880;19;20017;-59
2021/12/21 06:29:53;;;;;;;0.00;0.00;;;;;;;8.68;65.86;101767.94;7368187;19;20118;-59
2021/12/21 06:32:18;;;;;;;0.10;0.10;;;;;;;8.63;65.79;101758.38;7363511;19;20045;-59
2021/12/21 06:34:44;;;;;;;0.10;0.10;;;;;;;8.64;65.85;101763.59;7363629;19;20003;-59
2021/12/21 06:37:10;;;;;;;0.00;0.00;;;;;;;8.49;65.51;101738.38;7363138;19;20030;-59
2021/12/21 06:39:36;;;;;;;0.10;0.10;;;;;;;8.61;65.89;101767.91;7365727;19;20018;-59
2021/12/21 06:42:02;;;;;;;0.10;0.10;;;;;;;8.61;66.01;101767.91;7366735;19;20010;-60
2021/12/21 06:44:29;;;;;;;0.00;0.00;;;;;;;8.58;66.02;101766.19;7364397;19;20077;-59
2021/12/21 06:51:09;;;;;;;0.00;0.00;;;;;;;8.61;65.97;101767.91;7362876;19;20023;-59
2021/12/21 06:52:37;;;;;;;0.10;0.10;;;;;;;8.62;65.89;101769.63;7365592;19;20345;-59
2021/12/21 06:55:02;;;;;;;0.00;0.00;;;;;;;8.47;65.71;101755.75;7366290;19;20007;-59
2021/12/21 06:57:28;;;;;;;0.00;0.00;;;;;;;8.57;66.03;101772.25;7361750;19;20002;-59
2021/12/21 06:59:54;;;;;;;0.00;0.00;;;;;;;8.55;65.63;101774.84;7361858;19;20030;-59
2021/12/21 07:02:19;;;;;;;0.00;0.00;;;;;;;8.54;65.50;101777.44;7367729;19;20022;-58
2021/12/21 07:04:45;;;;;;;0.00;0.00;;;;;;;8.52;65.97;101777.44;7368427;19;20428;-59
2021/12/21 07:07:11;;;;;;;0.00;0.00;;;;;;;8.51;65.62;101778.28;7356262;19;20485;-59
2021/12/21 07:09:42;;;;;;;0.00;0.00;;;;;;;8.51;66.14;101775.69;7365513;19;20011;-59
2021/12/21 07:20:32;;;;;;;0.00;0.00;;;;;;;8.51;65.94;101778.28;7356035;19;20010;-59
2021/12/21 07:22:57;;;;;;;0.00;0.00;;;;;;;8.52;65.95;101774.84;7366742;19;20003;-59
2021/12/21 07:25:25;;;;;;;0.00;0.00;;;;;;;8.50;66.04;101773.97;7354401;19;20013;-58
2021/12/21 07:27:52;;;;;;;0.10;0.10;;;;;;;8.50;66.18;101776.56;7363744;19;20026;-59
2021/12/21 07:30:17;;;;;;;0.10;0.10;;;;;;;8.50;66.09;101776.56;7362550;19;20015;-59
2021/12/21 07:32:43;;;;;;;0.10;0.10;;;;;;;8.50;66.34;101779.16;7363891;19;20010;-59
2021/12/21 07:35:09;;;;;;;0.00;0.00;;;;;;;8.39;66.31;101765.25;7364246;19;20006;-59
2021/12/21 07:37:35;;;;;;;0.08;0.08;;;;;;;8.51;66.09;101788.72;7363913;19;20007;-58
2021/12/21 07:40:04;;;;;;;0.00;0.00;;;;;;;8.50;66.51;101784.38;7363912;19;20003;-59
2021/12/21 07:42:30;;;;;;;0.00;0.00;;;;;;;8.51;66.54;101788.72;7362153;19;20396;-58
2021/12/21 07:44:55;;;;;;;0.00;0.00;;;;;;;8.51;66.57;101788.72;7363332;19;20013;-59
2021/12/21 07:47:21;;;;;;;0.10;0.10;;;;;;;8.52;66.60;101790.47;7360547;19;20018;-59
2021/12/21 07:49:47;;;;;;;0.00;0.00;;;;;;;8.52;66.42;101795.69;7358361;19;20487;-59
2021/12/21 07:52:13;;;;;;;0.00;0.00;;;;;;;8.53;66.43;101781.78;7362419;19;20015;-59
2021/12/21 07:54:39;;;;;;;0.00;0.00;;;;;;;8.52;66.40;101785.25;7362141;19;20010;-58
2021/12/21 07:57:08;;;;;;;0.00;0.00;;;;;;;8.53;66.34;101783.53;7365620;19;20014;-59
2021/12/21 07:59:34;;;;;;;0.00;0.00;;;;;;;8.53;66.42;101788.72;7357239;19;20023;-59
2021/12/21 08:02:00;;;;;;;0.00;0.00;;;;;;;8.53;66.47;101802.63;7360416;19;20689;-58
2021/12/21 08:04:28;;;;;;;0.00;0.00;;;;;;;8.54;65.99;101806.94;7364516;19;20055;-59
2021/12/21 08:06:56;;;;;;;;;;;;;;;8.57;66.60;101804.38;7365685;19;20017;-60
2021/12/21 08:09:21;;;;;;;0.08;0.08;;;;;;;8.54;65.96;101804.34;7358589;19;19943;-59
2021/12/21 08:14:32;;;;;;;0.00;0.00;;;;;;;8.54;66.22;101813.91;7351895;19;20035;-59
2021/12/21 08:16:58;;;;;;;0.00;0.00;;;;;;;8.40;66.29;101786.94;7365740;19;20051;-59
2021/12/21 08:19:23;;;;;;;0.00;0.00;;;;;;;8.47;66.39;101796.53;7354561;19;20019;-59
2021/12/21 08:21:49;;;;;;;0.00;0.00;;;;;;;8.48;66.22;101798.25;7354060;19;20010;-59
2021/12/21 08:24:14;;;;;;;0.00;0.00;;;;;;;8.51;66.34;101806.94;7363347;19;20010;-59
2021/12/21 08:26:39;;;;;;;0.00;0.00;;;;;;;8.51;66.07;101809.53;7355509;19;20011;-58
2021/12/21 08:29:05;;;;;;;0.00;0.00;;;;;;;8.49;66.12;101808.66;7356797;19;20648;-59
2021/12/21 08:31:31;;;;;;;0.10;0.10;;;;;;;8.51;66.27;101813.88;7365334;19;20052;-59
2021/12/21 08:33:56;;;;;;;0.00;0.00;;;;;;;8.50;66.23;101815.59;7361905;19;20007;-58
2021/12/21 08:36:22;;;;;;;0.03;0.03;;;;;;;8.51;66.40;101825.16;7350114;19;20010;-59
2021/12/21 08:38:47;;;;;;;0.00;0.00;;;;;;;8.52;66.01;101819.09;7360013;19;20010;-59
2021/12/21 08:41:13;;;;;;;0.00;0.00;;;;;;;8.49;65.89;101816.47;7366595;19;20011;-59
2021/12/21 08:43:38;;;;;;;0.00;0.00;;;;;;;8.49;66.09;101811.28;7362385;19;20011;-59
2021/12/21 08:46:07;;;;;;;0.00;0.00;;;;;;;8.43;65.89;101816.47;7361480;19;20047;-58
2021/12/21 08:48:32;;;;;;;0.00;0.00;;;;;;;8.49;65.92;101821.69;7356444;19;20050;-59
2021/12/21 08:51:00;;;;;;;0.00;0.00;;;;;;;8.47;66.10;101813.00;7359034;19;20002;-59
2021/12/21 08:53:25;;;;;;;0.00;0.00;;;;;;;8.48;65.74;101814.75;7359878;19;20011;-57
2021/12/21 08:55:52;;;;;;;0.00;0.00;;;;;;;8.47;66.04;101817.34;7361878;19;20022;-59
2021/12/21 08:58:19;;;;;;;0.00;0.00;;;;;;;8.45;65.89;101817.31;7365219;19;20041;-59
2021/12/21 09:00:45;;;;;;;0.00;0.00;;;;;;;8.45;65.88;101817.31;7365004;19;20002;-58
2021/12/21 09:03:11;;;;;;;0.03;0.03;;;;;;;8.46;65.61;101818.19;7360254;19;20089;-59
2021/12/21 09:05:39;;;;;;;0.00;0.00;;;;;;;8.44;65.81;101807.78;7364518;19;20010;-59
2021/12/21 09:08:05;;;;;;;0.00;0.00;;;;;;;8.44;65.89;101807.78;7366581;19;20078;-58
2021/12/21 09:10:32;;;;;;;0.10;0.10;;;;;;;8.45;65.78;101806.03;7367658;19;20050;-59
2021/12/21 09:12:59;;;;;;;0.00;0.00;;;;;;;8.44;65.72;101806.91;7361493;19;20014;-58
2021/12/21 09:15:26;;;;;;;0.00;0.00;;;;;;;8.45;66.08;101808.66;7362947;19;20098;-58
2021/12/21 09:17:52;;;;;;;0.00;0.00;;;;;;;8.45;66.03;101806.91;7355477;19;20089;-58
2021/12/21 09:20:21;;;;;;;0.00;0.00;;;;;;;8.46;65.80;101800.84;7364939;19;21467;-58
2021/12/21 09:22:48;;;;;;;0.00;0.00;;;;;;;8.45;66.21;101806.91;7365367;19;20011;-58
2021/12/21 09:25:14;;;;;;;0.00;0.00;;;;;;;8.28;65.60;101764.31;7362205;19;20361;-58
2021/12/21 09:27:41;;;;;;;0.10;0.10;;;;;;;8.44;65.67;101792.16;7366216;19;20013;-59
2021/12/21 09:30:09;;;;;;;0.00;0.00;;;;;;;8.44;65.66;101792.16;7362948;19;20025;-58
2021/12/21 09:32:35;;;;;;;0.00;0.00;;;;;;;8.42;65.86;101799.13;7359353;19;20010;-59
2021/12/21 09:35:00;;;;;;;0.10;0.10;;;;;;;8.30;66.07;101778.19;7357411;19;20014;-58
2021/12/21 09:37:26;;;;;;;0.00;0.00;;;;;;;8.28;65.54;101778.19;7365489;19;20018;-59
2021/12/21 09:39:54;;;;;;;0.00;0.00;;;;;;;8.33;65.53;101794.69;7361259;19;20102;-58
2021/12/21 09:42:25;;;;;;;0.00;0.00;;;;;;;8.33;65.68;101805.09;7367941;19;20013;-59
2021/12/21 09:44:51;;;;;;;0.00;0.00;;;;;;;8.37;64.97;101811.25;7359944;19;20003;-59
2021/12/21 09:47:17;;;;;;;0.00;0.00;;;;;;;8.33;65.01;101812.03;7370591;19;20010;-59
2021/12/21 09:49:45;;;;;;;0.05;0.05;;;;;;;8.31;64.45;101821.56;7363612;19;20073;-59
2021/12/21 09:52:16;;;;;;;0.00;0.00;;;;;;;8.28;64.50;101818.97;7364211;19;20026;-59
2021/12/21 09:54:41;;;;;;;0.00;0.00;;;;;;;8.20;64.32;101815.44;7365918;19;20023;-59
2021/12/21 09:57:07;;;;;;;0.00;0.00;;;;;;;8.23;64.45;101810.28;7366211;19;20025;-59
2021/12/21 09:59:33;;;;;;;0.00;0.00;;;;;;;8.19;64.70;101811.97;7360835;19;20088;-57
2021/12/21 10:01:59;;;;;;;0.00;0.00;;;;;;;8.19;64.45;101821.53;7359897;19;20006;-58
2021/12/21 10:04:26;;;;;;;0.10;0.10;;;;;;;8.17;64.42;101823.25;7365527;19;20011;-58
2021/12/21 10:06:54;;;;;;;0.00;0.00;;;;;;;8.15;64.82;101828.44;7362962;19;20506;-59
2021/12/21 10:09:23;;;;;;;0.03;0.03;;;;;;;8.04;64.62;101817.09;7348576;19;20050;-58
2021/12/21 10:11:51;;;;;;;0.00;0.00;;;;;;;8.13;64.67;101827.56;7366190;19;20066;-59
2021/12/21 10:14:18;;;;;;;0.10;0.10;;;;;;;8.12;64.94;101819.75;7353278;19;20007;-59
2021/12/21 10:16:45;;;;;;;0.08;0.08;;;;;;;8.12;64.99;101824.97;7360112;19;20067;-59
2021/12/21 10:19:21;;;;;;;0.00;0.00;;;;;;;8.15;65.48;101827.56;7359843;19;20013;-58
2021/12/21 10:21:47;;;;;;;0.10;0.10;;;;;;;8.08;65.53;101818.88;7359784;19;20014;-58
2021/12/21 10:24:26;;;;;;;0.00;0.00;;;;;;;8.17;65.29;101820.66;7361799;19;20010;-59
2021/12/21 10:27:04;;;;;;;0.00;0.00;;;;;;;8.15;64.78;101819.75;7360619;19;20021;-59
2021/12/21 10:29:40;;;;;;;0.00;0.00;;;;;;;8.16;64.86;101822.38;7362989;19;20018;-58
2021/12/21 10:32:06;;;;;;;0.00;0.00;;;;;;;8.14;65.15;101823.22;7360926;19;20111;-58
2021/12/21 10:34:31;;;;;;;0.00;0.00;;;;;;;8.15;64.79;101825.81;7362319;19;20006;-59
2021/12/21 10:36:57;;;;;;;0.00;0.00;;;;;;;8.14;65.15;101818.03;7362040;19;20371;-58
2021/12/21 10:39:31;;;;;;;0.00;0.00;;;;;;;8.16;65.10;101816.28;7360807;19;20028;-59
2021/12/21 10:42:00;;;;;;;0.00;0.00;;;;;;;8.15;64.88;101822.34;7359245;19;20014;-59
2021/12/21 10:44:25;;;;;;;0.10;0.10;;;;;;;8.10;64.64;101816.25;7353463;19;20015;-58
2021/12/21 10:46:53;;;;;;;0.00;0.00;;;;;;;8.13;64.71;101821.50;7363130;19;20002;-59
2021/12/21 10:49:23;;;;;;;;;;;;;;;8.15;65.36;101819.75;7360781;19;20083;-58
2021/12/21 10:51:56;;;;;;;0.00;0.00;;;;;;;8.16;64.70;101816.28;7360914;19;20331;-58
2021/12/21 10:54:34;;;;;;;0.00;0.00;;;;;;;8.16;64.32;101816.28;7362118;19;20007;-57
2021/12/21 10:57:03;;;;;;;0.00;0.00;;;;;;;8.12;64.29;101804.16;7364258;19;20025;-59
2021/12/21 10:59:33;;;;;;;0.00;0.00;;;;;;;8.10;63.83;101801.53;7358846;19;20018;-59
2021/12/21 11:02:10;;;;;;;0.10;0.10;;;;;;;8.09;64.80;101809.31;7362465;19;20014;-58
2021/12/21 11:04:41;;;;;;;0.00;0.00;;;;;;;8.07;64.45;101799.78;7357590;19;20006;-59
2021/12/21 11:07:37;;;;;;;0.00;0.00;;;;;;;8.06;64.23;101800.66;7362232;19;20042;-59
2021/12/21 11:10:17;;;;;;;0.00;0.00;;;;;;;7.98;64.66;101776.31;7258998;19;2004593;-59
2021/12/21 11:12:50;;;;;;;0.05;0.05;;;;;;;8.05;64.36;101793.69;7364123;19;20007;-59
2021/12/21 11:15:28;;;;;;;0.05;0.05;;;;;;;8.01;64.31;101780.69;7360965;19;20031;-59
2021/12/21 11:17:55;;;;;;;0.00;0.00;;;;;;;7.99;64.28;101785.84;7357617;19;20027;-60
2021/12/21 11:20:20;;;;;;;0.00;0.00;;;;;;;8.02;64.06;101788.50;7363077;19;20149;-59
2021/12/21 11:22:46;;;;;;;0.00;0.00;;;;;;;7.97;64.62;101774.59;7358285;19;20014;-59
2021/12/21 11:25:13;;;;;;;0.00;0.00;;;;;;;8.05;64.01;101798.03;7352358;19;20090;-58
2021/12/21 11:27:41;;;;;;;0.00;0.00;;;;;;;8.07;64.18;101797.19;7355271;19;20021;-59
2021/12/21 11:30:08;;;;;;;;;;;;;;;8.11;64.86;101802.38;7361428;19;20006;-59
2021/12/21 11:32:38;;;;;;;;;;;;;;;8.13;64.55;101795.47;7361525;19;19930;-59
2021/12/21 11:37:20;;;;;;;0.00;0.00;;;;;;;7.97;63.29;101769.38;7363179;19;19937;-57
2021/12/21 11:37:58;;;;;;;0.00;0.00;;;;;;;8.06;63.61;101773.78;7362339;19;20010;-60
2021/12/21 11:40:27;;;;;;;0.00;0.00;;;;;;;7.93;63.88;101752.03;7360539;19;20031;-59
2021/12/21 11:43:07;;;;;;;0.03;0.03;;;;;;;8.02;63.78;101778.09;7359434;19;20034;-58
2021/12/21 11:45:52;;;;;;;0.00;0.00;;;;;;;7.99;63.92;101772.84;7360587;19;20027;-59
2021/12/21 11:48:35;;;;;;;0.00;0.00;;;;;;;8.01;64.35;101763.34;7357768;19;20018;-59
2021/12/21 11:51:07;;;;;;;0.00;0.00;;;;;;;7.98;64.13;101759.84;7360881;19;20010;-57
2021/12/21 11:53:34;;;;;;;0.10;0.10;;;;;;;7.96;64.00;101757.25;7358608;19;20018;-58
2021/12/21 11:55:59;;;;;;;0.00;0.00;;;;;;;7.98;64.27;101752.91;7360935;19;20010;-59
2021/12/21 11:58:40;;;;;;;0.00;0.00;;;;;;;7.92;64.59;101734.69;7359896;19;20009;-59
2021/12/21 12:01:23;;;;;;;0.00;0.00;;;;;;;8.02;64.39;101752.06;7361328;19;20010;-58
2021/12/21 12:03:56;;;;;;;0.08;0.08;;;;;;;8.02;64.50;101746.88;7357874;19;20011;-59
2021/12/21 12:06:21;;;;;;;0.08;0.08;;;;;;;8.01;64.58;101737.34;7363731;19;20006;-59
2021/12/21 12:09:02;;;;;;;0.00;0.00;;;;;;;8.02;64.69;101735.59;7363507;19;20007;-59
2021/12/21 12:11:37;;;;;;;0.00;0.00;;;;;;;8.03;64.49;101740.78;7363710;19;20023;-59
2021/12/21 12:14:12;;;;;;;0.00;0.00;;;;;;;8.07;64.92;101726.94;7360903;19;20018;-59
2021/12/21 12:16:51;;;;;;;0.05;0.05;;;;;;;8.09;64.54;101731.28;7360610;19;20018;-58
2021/12/21 12:19:22;;;;;;;0.00;0.00;;;;;;;7.99;64.84;101710.44;7364402;19;20010;-59
2021/12/21 12:21:59;;;;;;;0.00;0.00;;;;;;;8.15;64.69;101726.09;7359656;19;20010;-59
2021/12/21 12:24:32;;;;;;;0.10;0.10;;;;;;;8.16;64.92;101720.03;7358662;19;20022;-59
2021/12/21 12:27:12;;;;;;;0.10;0.10;;;;;;;8.18;64.95;101715.72;7359381;19;20433;-58
2021/12/21 12:29:47;;;;;;;0.00;0.00;;;;;;;8.21;64.89;101705.28;7364828;19;20361;-58
2021/12/21 12:32:14;;;;;;;0.00;0.00;;;;;;;8.21;64.51;101705.28;7359551;19;20047;-59
2021/12/21 12:34:42;;;;;;;0.03;0.03;;;;;;;8.05;65.02;101671.44;7367372;19;20041;-57
2021/12/21 12:37:18;;;;;;;0.10;0.10;;;;;;;8.25;64.62;101688.84;7367816;19;20010;-59
2021/12/21 12:39:46;;;;;;;0.00;0.00;;;;;;;8.18;64.64;101679.28;7367816;19;20025;-60
2021/12/21 12:42:33;;;;;;;0.00;0.00;;;;;;;8.27;64.89;101681.91;7363635;19;20002;-59